createdAt,value
2018-05-15T00:02:22.445Z,83.70
2018-05-15T00:04:50.378Z,84.40
2018-05-15T00:07:18.238Z,85.10
2018-05-15T00:09:46.104Z,86.00
2018-05-15T00:12:13.850Z,85.10
2018-05-15T00:14:41.622Z,85.00
2018-05-15T00:17:10.213Z,84.30
2018-05-15T00:19:37.987Z,84.20
2018-05-15T00:22:05.721Z,85.00
2018-05-15T00:24:33.502Z,85.00
2018-05-15T00:27:01.244Z,85.10
2018-05-15T00:29:29.118Z,85.10
2018-05-15T00:31:57.805Z,85.10
2018-05-15T00:34:26.383Z,85.60
2018-05-15T00:36:54.249Z,85.70
2018-05-15T00:39:22.110Z,86.50
2018-05-15T00:41:50.691Z,87.20
2018-05-15T00:44:18.591Z,86.70
2018-05-15T00:46:46.419Z,88.10
2018-05-15T00:49:14.182Z,89.10
2018-05-15T00:51:42.045Z,88.70
2018-05-15T00:54:10.627Z,90.50
2018-05-15T00:56:38.490Z,90.40
2018-05-15T00:59:07.180Z,90.90
2018-05-15T01:01:35.039Z,90.90
2018-05-15T01:04:02.903Z,91.00
2018-05-15T01:06:30.768Z,91.70
2018-05-15T01:08:59.449Z,91.40
2018-05-15T01:11:27.313Z,91.40
2018-05-15T01:13:55.179Z,91.40
2018-05-15T01:16:23.041Z,91.90
2018-05-15T01:18:50.910Z,92.50
2018-05-15T01:21:18.770Z,93.30
2018-05-15T01:23:46.639Z,93.50
2018-05-15T01:26:14.405Z,93.80
2018-05-15T01:28:43.084Z,95.60
2018-05-15T01:31:10.840Z,95.60
2018-05-15T01:33:38.587Z,96.50
2018-05-15T01:36:06.371Z,96.00
2018-05-15T01:38:34.127Z,96.70
2018-05-15T01:41:01.896Z,97.70
2018-05-15T01:43:29.652Z,97.90
2018-05-15T01:45:58.744Z,98.70
2018-05-15T01:48:26.618Z,98.70
2018-05-15T01:50:55.296Z,99.30
2018-05-15T01:53:23.794Z,99.60
2018-05-15T01:55:52.456Z,99.90
2018-05-15T01:58:21.038Z,99.90
2018-05-15T02:00:48.898Z,99.90
2018-05-15T02:03:17.485Z,99.00
2018-05-15T02:05:46.060Z,99.50
2018-05-15T02:08:13.831Z,99.60
2018-05-15T02:10:42.404Z,99.40
2018-05-15T02:13:11.088Z,99.50
2018-05-15T02:15:38.960Z,99.50
2018-05-15T02:18:07.634Z,98.60
2018-05-15T02:20:35.504Z,98.60
2018-05-15T02:23:03.361Z,98.40
2018-05-15T02:25:31.230Z,97.80
2018-05-15T02:27:59.910Z,96.40
2018-05-15T02:30:27.751Z,96.40
2018-05-15T02:32:55.721Z,95.20
2018-05-15T02:35:23.606Z,94.60
2018-05-15T02:37:51.475Z,93.90
2018-05-15T02:40:20.153Z,92.90
2018-05-15T02:42:48.017Z,92.90
2018-05-15T02:45:15.884Z,92.40
2018-05-15T02:47:44.462Z,91.80
2018-05-15T02:50:13.043Z,92.00
2018-05-15T02:52:40.875Z,92.00
2018-05-15T02:55:08.647Z,91.90
2018-05-15T02:57:36.384Z,91.70
2018-05-15T03:00:04.192Z,91.90
2018-05-15T03:02:32.774Z,92.50
2018-05-15T03:05:00.653Z,92.50
2018-05-15T03:07:28.506Z,92.50
2018-05-15T03:09:57.040Z,92.80
2018-05-15T03:12:24.951Z,92.80
2018-05-15T03:14:52.812Z,92.00
2018-05-15T03:17:21.496Z,92.00
2018-05-15T03:19:50.080Z,92.00
2018-05-15T03:22:17.944Z,92.00
2018-05-15T03:24:45.906Z,92.00
2018-05-15T03:27:14.590Z,91.80
2018-05-15T03:29:43.168Z,91.80
2018-05-15T03:32:11.034Z,92.10
2018-05-15T03:34:38.906Z,91.30
2018-05-15T03:37:07.479Z,92.10
2018-05-15T03:39:35.347Z,92.10
2018-05-15T03:42:03.213Z,91.60
2018-05-15T03:44:31.077Z,91.60
2018-05-15T03:46:58.913Z,91.60
2018-05-15T03:49:26.700Z,91.70
2018-05-15T03:51:55.282Z,92.10
2018-05-15T03:54:23.933Z,91.70
2018-05-15T03:56:51.732Z,91.70
2018-05-15T03:59:19.589Z,91.80
2018-05-15T04:01:59.432Z,91.30
2018-05-15T04:04:39.022Z,91.20
2018-05-15T04:07:18.391Z,90.60
2018-05-15T04:09:46.339Z,91.40
2018-05-15T04:12:14.085Z,90.80
2018-05-15T04:14:41.878Z,90.40
2018-05-15T04:17:09.653Z,89.20
2018-05-15T04:19:37.420Z,89.20
2018-05-15T04:22:05.284Z,88.20
2018-05-15T04:24:33.834Z,90.00
2018-05-15T04:27:01.698Z,90.00
2018-05-15T04:29:29.489Z,89.00
2018-05-15T04:31:58.174Z,86.50
2018-05-15T04:34:26.039Z,86.50
2018-05-15T04:36:53.908Z,86.20
2018-05-15T04:39:21.728Z,86.50
2018-05-15T04:41:49.501Z,88.80
2018-05-15T04:44:17.397Z,88.90
2018-05-15T04:46:45.976Z,90.20
2018-05-15T04:49:14.710Z,91.10
2018-05-15T04:51:42.523Z,91.10
2018-05-15T04:54:11.206Z,91.40
2018-05-15T04:56:39.761Z,92.80
2018-05-15T04:59:07.613Z,92.80
2018-05-15T05:01:35.521Z,92.90
2018-05-15T05:04:03.377Z,92.80
2018-05-15T05:06:31.244Z,93.70
2018-05-15T05:08:59.108Z,92.90
2018-05-15T05:11:27.023Z,91.50
2018-05-15T05:13:54.795Z,90.70
2018-05-15T05:16:22.661Z,90.80
2018-05-15T05:18:50.434Z,90.30
2018-05-15T05:21:18.229Z,90.20
2018-05-15T05:23:46.086Z,88.00
2018-05-15T05:26:14.772Z,81.80
2018-05-15T05:28:42.639Z,81.80
2018-05-15T05:31:10.433Z,77.00
2018-05-15T05:33:38.168Z,75.10
2018-05-15T05:36:05.903Z,69.30
2018-05-15T05:38:33.748Z,66.40
2018-05-15T05:41:01.546Z,65.00
2018-05-15T05:43:29.419Z,59.40
2018-05-15T05:45:57.196Z,55.10
2018-05-15T05:48:25.728Z,45.40
2018-05-15T05:50:53.618Z,45.30
2018-05-15T05:53:21.487Z,42.50
2018-05-15T05:55:49.228Z,41.60
2018-05-15T05:58:17.077Z,42.80
2018-05-15T06:00:44.841Z,40.90
2018-05-15T06:03:12.735Z,40.10
2018-05-15T06:05:40.599Z,41.30
2018-05-15T06:08:08.461Z,42.40
2018-05-15T06:10:37.145Z,45.40
2018-05-15T06:13:05.009Z,45.40
2018-05-15T06:15:32.778Z,46.40
2018-05-15T06:18:00.533Z,47.40
2018-05-15T06:20:28.397Z,46.60
2018-05-15T06:22:56.262Z,46.30
2018-05-15T06:25:24.126Z,44.80
2018-05-15T06:27:51.990Z,44.00
2018-05-15T06:30:19.920Z,43.60
2018-05-15T06:32:47.681Z,39.00
2018-05-15T06:35:15.480Z,39.60
2018-05-15T06:37:43.347Z,40.00
2018-05-15T06:40:11.102Z,42.20
2018-05-15T06:42:38.904Z,42.70
2018-05-15T06:45:06.654Z,42.60
2018-05-15T06:47:34.434Z,43.20
2018-05-15T06:50:02.179Z,43.60
2018-05-15T06:52:29.976Z,44.50
2018-05-15T06:54:57.883Z,39.60
2018-05-15T06:57:25.850Z,33.70
2018-05-15T06:59:53.649Z,28.20
2018-05-15T07:02:21.583Z,25.00
2018-05-15T07:04:49.447Z,24.10
2018-05-15T07:07:17.268Z,24.70
2018-05-15T07:09:45.068Z,26.50
2018-05-15T07:12:12.941Z,28.40
2018-05-15T07:14:40.710Z,28.60
2018-05-15T07:17:09.274Z,21.30
2018-05-15T07:19:37.183Z,21.60
2018-05-15T07:22:05.308Z,19.60
2018-05-15T07:24:33.996Z,16.80
2018-05-15T07:27:01.763Z,15.60
2018-05-15T07:29:29.621Z,14.30
2018-05-15T07:31:57.484Z,14.80
2018-05-15T07:34:25.382Z,15.50
2018-05-15T07:36:53.222Z,14.50
2018-05-15T07:39:21.896Z,13.00
2018-05-15T07:41:49.757Z,12.90
2018-05-15T07:44:17.505Z,12.60
2018-05-15T07:46:45.388Z,11.70
2018-05-15T07:49:13.248Z,11.70
2018-05-15T07:51:41.217Z,13.30
2018-05-15T07:54:09.077Z,13.40
2018-05-15T07:56:36.850Z,13.80
2018-05-15T07:59:04.598Z,13.40
2018-05-15T08:01:32.375Z,13.20
2018-05-15T08:04:00.119Z,12.50
2018-05-15T08:06:27.904Z,15.60
2018-05-15T08:08:55.652Z,17.50
2018-05-15T08:11:24.228Z,19.20
2018-05-15T08:13:52.195Z,18.90
2018-05-15T08:16:20.146Z,19.20
2018-05-15T08:18:48.026Z,19.50
2018-05-15T08:21:15.757Z,16.60
2018-05-15T08:23:43.538Z,15.90
2018-05-15T08:26:11.281Z,18.80
2018-05-15T08:28:40.073Z,23.10
2018-05-15T08:31:08.584Z,21.00
2018-05-15T08:33:36.438Z,20.90
2018-05-15T08:36:04.321Z,16.40
2018-05-15T08:38:32.989Z,13.80
2018-05-15T08:41:00.768Z,13.80
2018-05-15T08:43:28.615Z,13.80
2018-05-15T08:45:57.404Z,15.70
2018-05-15T08:48:25.264Z,15.60
2018-05-15T08:50:53.128Z,15.20
2018-05-15T08:53:20.989Z,13.90
2018-05-15T08:55:48.852Z,16.60
2018-05-15T08:58:16.719Z,17.90
2018-05-15T09:00:44.582Z,17.20
2018-05-15T09:03:12.447Z,14.50
2018-05-15T09:05:40.214Z,13.70
2018-05-15T09:08:08.075Z,13.20
2018-05-15T09:10:35.835Z,13.60
2018-05-15T09:13:03.632Z,13.40
2018-05-15T09:15:32.220Z,16.60
2018-05-15T09:18:00.071Z,16.60
2018-05-15T09:20:27.825Z,16.80
2018-05-15T09:22:55.584Z,17.00
2018-05-15T09:25:23.312Z,19.20
2018-05-15T09:27:51.099Z,22.40
2018-05-15T09:30:18.920Z,24.20
2018-05-15T09:32:46.815Z,28.40
2018-05-15T09:35:14.683Z,29.40
2018-05-15T09:37:43.369Z,32.30
2018-05-15T09:40:11.229Z,32.30
2018-05-15T09:42:39.110Z,33.70
2018-05-15T09:45:06.875Z,34.20
2018-05-15T09:47:35.410Z,33.00
2018-05-15T09:50:04.688Z,33.10
2018-05-15T09:52:32.804Z,32.90
2018-05-15T09:55:02.714Z,33.00
2018-05-15T09:57:31.422Z,34.00
2018-05-15T09:59:59.630Z,34.00
2018-05-15T10:02:28.356Z,30.40
2018-05-15T10:04:56.428Z,30.40
2018-05-15T10:07:25.313Z,28.70
2018-05-15T10:09:53.180Z,28.60
2018-05-15T10:12:21.044Z,29.10
2018-05-15T10:14:48.907Z,28.60
2018-05-15T10:17:16.767Z,28.30
2018-05-15T10:19:44.631Z,27.70
2018-05-15T10:22:12.496Z,26.60
2018-05-15T10:24:40.566Z,27.40
2018-05-15T10:27:08.337Z,28.70
2018-05-15T10:29:36.191Z,27.70
2018-05-15T10:32:03.996Z,28.10
2018-05-15T10:34:31.737Z,28.40
2018-05-15T10:36:59.504Z,29.20
2018-05-15T10:39:27.244Z,29.80
2018-05-15T10:41:55.057Z,30.90
2018-05-15T10:44:22.788Z,31.70
2018-05-15T10:46:50.542Z,31.80
2018-05-15T10:49:19.210Z,30.00
2018-05-15T10:51:47.087Z,29.80
2018-05-15T10:54:14.999Z,29.50
2018-05-15T10:56:42.902Z,30.10
2018-05-15T10:59:10.768Z,29.50
2018-05-15T11:01:38.627Z,30.20
2018-05-15T11:04:06.494Z,30.60
2018-05-15T11:06:34.460Z,30.40
2018-05-15T11:09:02.323Z,30.70
2018-05-15T11:11:30.062Z,30.50
2018-05-15T11:13:58.559Z,28.20
2018-05-15T11:16:26.335Z,28.20
2018-05-15T11:18:54.091Z,28.70
2018-05-15T11:21:33.933Z,28.20
2018-05-15T11:37:46.421Z,26.70
2018-05-15T11:40:15.100Z,26.40
2018-05-15T11:42:42.969Z,27.60
2018-05-15T11:45:10.827Z,29.50
2018-05-15T11:47:38.839Z,30.00
2018-05-15T11:50:07.238Z,29.90
2018-05-15T11:52:35.143Z,30.40
2018-05-15T11:55:02.252Z,29.60
2018-05-15T11:57:29.999Z,29.00
2018-05-15T11:59:57.817Z,29.20
2018-05-15T12:02:25.586Z,29.80
2018-05-15T12:04:53.359Z,29.40
2018-05-15T12:07:21.119Z,28.20
2018-05-15T12:09:48.915Z,28.30
2018-05-15T12:12:16.721Z,27.90
2018-05-15T12:14:44.587Z,28.20
2018-05-15T12:17:12.447Z,28.80
2018-05-15T12:19:40.211Z,30.40
2018-05-15T12:22:07.946Z,30.20
2018-05-15T12:24:35.903Z,31.20
2018-05-15T12:27:03.699Z,32.20
2018-05-15T12:29:31.526Z,32.50
2018-05-15T12:31:59.431Z,32.80
2018-05-15T12:34:27.189Z,33.50
2018-05-15T12:36:55.053Z,34.00
2018-05-15T12:39:22.917Z,32.90
2018-05-15T12:41:50.815Z,33.30
2018-05-15T12:44:18.648Z,31.20
2018-05-15T12:46:46.608Z,30.80
2018-05-15T12:49:14.299Z,31.00
2018-05-15T12:51:42.976Z,28.90
2018-05-15T12:54:11.550Z,29.10
2018-05-15T12:56:39.401Z,28.90
2018-05-15T12:59:07.264Z,29.30
2018-05-15T13:01:35.132Z,29.00
2018-05-15T13:04:02.997Z,28.50
2018-05-15T13:06:30.745Z,27.70
2018-05-15T13:08:58.539Z,27.60
2018-05-15T13:11:26.276Z,28.30
2018-05-15T13:13:54.049Z,28.60
2018-05-15T13:16:21.788Z,28.20
2018-05-15T13:18:49.558Z,27.20
2018-05-15T13:21:17.291Z,27.50
2018-05-15T13:23:45.085Z,28.20
2018-05-15T13:26:12.828Z,28.30
2018-05-15T13:28:40.713Z,27.80
2018-05-15T13:31:08.577Z,28.30
2018-05-15T13:33:36.408Z,28.80
2018-05-15T13:36:04.203Z,29.80
2018-05-15T13:38:31.935Z,30.00
2018-05-15T13:40:59.721Z,30.10
2018-05-15T13:43:27.560Z,31.30
2018-05-15T13:45:55.412Z,31.40
2018-05-15T13:48:23.216Z,31.50
2018-05-15T13:50:51.080Z,30.80
2018-05-15T13:53:18.946Z,30.70
2018-05-15T13:55:47.218Z,32.20
2018-05-15T13:58:14.980Z,32.60
2018-05-15T14:00:42.846Z,33.00
2018-05-15T14:03:10.713Z,32.40
2018-05-15T14:05:38.573Z,32.50
2018-05-15T14:08:07.372Z,31.90
2018-05-15T14:10:35.222Z,31.20
2018-05-15T14:13:03.813Z,30.90
2018-05-15T14:15:31.671Z,30.50
2018-05-15T14:17:59.500Z,31.50
2018-05-15T14:20:27.399Z,32.40
2018-05-15T14:22:55.267Z,31.60
2018-05-15T14:25:23.125Z,31.00
2018-05-15T14:27:50.873Z,31.80
2018-05-15T14:30:18.659Z,32.30
2018-05-15T14:32:46.417Z,32.60
2018-05-15T14:35:14.197Z,32.50
2018-05-15T14:37:41.943Z,32.90
2018-05-15T14:40:09.739Z,32.70
2018-05-15T14:42:49.437Z,32.70
2018-05-15T14:45:18.185Z,32.80
2018-05-15T14:47:45.985Z,31.40
2018-05-15T14:50:13.954Z,30.20
2018-05-15T14:52:41.815Z,31.40
2018-05-15T14:55:09.679Z,31.40
2018-05-15T14:57:37.510Z,32.40
2018-05-15T15:00:05.413Z,31.70
2018-05-15T15:02:33.273Z,31.90
2018-05-15T15:05:01.136Z,32.10
2018-05-15T15:07:29.023Z,31.90
2018-05-15T15:09:57.576Z,32.90
2018-05-15T15:12:25.449Z,32.80
2018-05-15T15:14:53.419Z,33.10
2018-05-15T15:17:21.293Z,33.50
2018-05-15T15:19:49.857Z,35.00
2018-05-15T15:22:17.723Z,34.90
2018-05-15T15:24:45.586Z,35.30
2018-05-15T15:27:13.454Z,36.00
2018-05-15T15:29:41.315Z,36.60
2018-05-15T15:32:09.048Z,36.00
2018-05-15T15:34:36.948Z,37.20
2018-05-15T15:37:04.805Z,36.80
2018-05-15T15:39:32.668Z,36.60
2018-05-15T15:42:00.405Z,36.40
2018-05-15T15:44:28.170Z,36.00
2018-05-15T15:46:55.903Z,35.20
2018-05-15T15:49:23.664Z,35.40
2018-05-15T15:51:51.408Z,35.00
2018-05-15T15:54:19.213Z,35.10
2018-05-15T15:56:47.009Z,35.90
2018-05-15T15:59:14.864Z,36.80
2018-05-15T16:01:42.732Z,37.40
2018-05-15T16:04:10.601Z,39.60
2018-05-15T16:06:38.559Z,43.00
2018-05-15T16:09:06.425Z,51.70
2018-05-15T16:11:34.180Z,66.20
2018-05-15T16:14:02.051Z,55.50
2018-05-15T16:16:30.635Z,52.60
2018-05-15T16:18:58.391Z,52.60
2018-05-15T16:21:26.161Z,51.30
2018-05-15T16:23:54.020Z,51.70
2018-05-15T16:26:22.394Z,51.60
2018-05-15T16:28:50.259Z,50.50
2018-05-15T16:31:18.839Z,50.40
2018-05-15T16:33:46.703Z,50.40
2018-05-15T16:36:14.568Z,50.20
2018-05-15T16:38:42.432Z,51.50
2018-05-15T16:41:11.012Z,57.30
2018-05-15T16:43:38.878Z,57.60
2018-05-15T16:46:06.740Z,59.10
2018-05-15T16:48:34.607Z,62.00
2018-05-15T16:51:02.473Z,62.70
2018-05-15T16:53:30.338Z,64.40
2018-05-15T16:55:58.167Z,70.40
2018-05-15T16:58:25.895Z,80.50
2018-05-15T17:00:53.725Z,93.30
2018-05-15T17:03:21.465Z,99.90
2018-05-15T17:05:49.260Z,99.90
2018-05-15T17:08:17.170Z,99.90
2018-05-15T17:10:44.844Z,99.90
2018-05-15T17:13:12.646Z,99.90
2018-05-15T17:15:40.500Z,99.90
2018-05-15T17:18:08.986Z,99.90
2018-05-15T17:20:36.801Z,99.90
2018-05-15T17:23:04.546Z,99.90
2018-05-15T17:25:32.418Z,99.90
2018-05-15T17:28:00.901Z,99.90
2018-05-15T17:30:28.647Z,99.90
2018-05-15T17:32:56.417Z,99.90
2018-05-15T17:35:24.216Z,99.90
2018-05-15T17:37:52.009Z,99.90
2018-05-15T17:40:20.536Z,99.90
2018-05-15T17:42:48.304Z,99.90
2018-05-15T17:45:16.075Z,99.90
2018-05-15T17:47:43.835Z,99.90
2018-05-15T17:50:11.578Z,99.90
2018-05-15T17:52:39.384Z,99.90
2018-05-15T17:55:07.967Z,99.90
2018-05-15T17:57:35.761Z,99.90
2018-05-15T18:00:04.271Z,99.90
2018-05-15T18:02:32.017Z,99.90
2018-05-15T18:04:59.793Z,99.90
2018-05-15T18:07:27.592Z,99.90
2018-05-15T18:09:55.429Z,99.90
2018-05-15T18:12:23.319Z,99.90
2018-05-15T18:14:51.089Z,99.90
2018-05-15T18:17:18.869Z,99.90
2018-05-15T18:19:47.525Z,99.90
2018-05-15T18:22:16.104Z,99.90
2018-05-15T18:24:44.687Z,99.90
2018-05-15T18:27:13.268Z,99.90
2018-05-15T18:29:41.090Z,99.90
2018-05-15T18:32:08.828Z,99.90
2018-05-15T18:34:37.473Z,99.90
2018-05-15T18:37:05.340Z,99.90
2018-05-15T18:39:33.080Z,99.90
2018-05-15T18:42:00.941Z,99.90
2018-05-15T18:44:28.830Z,99.90
2018-05-15T18:46:57.513Z,99.90
2018-05-15T18:49:25.255Z,99.90
2018-05-15T18:51:53.037Z,99.90
2018-05-15T18:54:21.619Z,99.90
2018-05-15T18:56:50.198Z,99.90
2018-05-15T18:59:18.067Z,99.90
2018-05-15T19:01:46.751Z,99.90
2018-05-15T19:04:14.609Z,99.90
2018-05-15T19:06:43.232Z,99.90
2018-05-15T19:09:11.161Z,99.90
2018-05-15T19:11:39.021Z,99.90
2018-05-15T19:14:07.677Z,99.90
2018-05-15T19:16:35.671Z,99.90
2018-05-15T19:19:03.535Z,99.90
2018-05-15T19:21:32.118Z,99.90
2018-05-15T19:24:02.345Z,99.90
2018-05-15T19:26:31.122Z,99.90
2018-05-15T19:29:00.782Z,99.90
2018-05-15T19:31:34.120Z,99.90
2018-05-15T19:34:02.805Z,99.90
2018-05-15T19:36:31.432Z,99.90
2018-05-15T19:39:04.730Z,99.90
2018-05-15T19:41:32.528Z,99.90
2018-05-15T19:44:00.270Z,99.90
2018-05-15T19:46:28.071Z,99.90
2018-05-15T19:48:55.933Z,99.90
2018-05-15T19:51:23.906Z,99.90
2018-05-15T19:53:51.735Z,99.90
2018-05-15T19:56:19.625Z,99.90
2018-05-15T19:58:48.207Z,99.90
2018-05-15T20:01:16.069Z,99.90
2018-05-15T20:03:44.650Z,99.90
2018-05-15T20:06:13.201Z,99.90
2018-05-15T20:08:41.110Z,99.90
2018-05-15T20:11:08.959Z,99.90
2018-05-15T20:13:37.744Z,99.90
2018-05-15T20:16:06.960Z,99.90
2018-05-15T20:18:35.488Z,99.90
2018-05-15T20:21:03.286Z,99.90
2018-05-15T20:23:31.253Z,99.90
2018-05-15T20:25:59.112Z,99.90
2018-05-15T20:28:26.980Z,99.90
2018-05-15T20:30:54.844Z,99.90
2018-05-15T20:33:22.751Z,99.90
2018-05-15T20:35:51.492Z,99.90
2018-05-15T20:38:19.316Z,99.90
2018-05-15T20:40:47.219Z,99.90
2018-05-15T20:43:14.982Z,99.90
2018-05-15T20:45:42.757Z,99.90
2018-05-15T20:48:10.601Z,99.90
2018-05-15T20:50:38.458Z,99.90
2018-05-15T20:53:06.336Z,99.90
2018-05-15T20:55:35.146Z,99.90
2018-05-15T20:58:03.805Z,99.90
2018-05-15T21:00:31.757Z,99.90
2018-05-15T21:02:59.533Z,99.90
2018-05-15T21:05:27.525Z,99.90
2018-05-15T21:07:56.185Z,99.90
2018-05-15T21:10:23.946Z,99.90
2018-05-15T21:12:52.631Z,99.90
2018-05-15T21:15:21.735Z,99.90
2018-05-15T21:17:49.690Z,99.90
2018-05-15T21:20:19.196Z,99.90
2018-05-15T21:22:47.843Z,99.90
2018-05-15T21:25:15.639Z,99.90
2018-05-15T21:27:43.420Z,99.90
2018-05-15T21:30:11.166Z,99.90
2018-05-15T21:32:39.116Z,99.90
2018-05-15T21:35:06.869Z,99.90
2018-05-15T21:37:34.708Z,99.90
2018-05-15T21:40:02.452Z,99.90
2018-05-15T21:42:30.276Z,99.90
2018-05-15T21:44:58.242Z,99.90
2018-05-15T21:47:26.162Z,99.90
2018-05-15T21:49:54.082Z,99.90
2018-05-15T21:52:21.940Z,99.90
2018-05-15T21:54:50.620Z,99.90
2018-05-15T21:57:19.200Z,99.90
2018-05-15T21:59:47.883Z,99.90
2018-05-15T22:02:15.646Z,99.90
2018-05-15T22:04:43.513Z,99.90
2018-05-15T22:07:12.096Z,99.90
2018-05-15T22:09:39.987Z,99.90
2018-05-15T22:12:20.353Z,99.90
2018-05-15T22:15:00.060Z,99.90
2018-05-15T22:17:39.801Z,99.90
2018-05-15T22:20:19.648Z,99.90
2018-05-15T22:22:46.996Z,99.90
2018-05-15T22:25:14.859Z,99.90
2018-05-15T22:27:42.831Z,99.90
2018-05-15T22:30:10.691Z,99.90
2018-05-15T22:32:38.595Z,99.90
2018-05-15T22:35:06.420Z,99.90
2018-05-15T22:37:34.385Z,99.90
2018-05-15T22:40:02.252Z,99.90
2018-05-15T22:42:30.071Z,99.90
2018-05-15T22:44:57.925Z,99.90
2018-05-15T22:47:25.659Z,99.90
2018-05-15T22:49:53.440Z,99.90
2018-05-15T22:52:21.183Z,99.90
2018-05-15T22:54:48.948Z,99.90
2018-05-15T22:57:16.705Z,99.90
2018-05-15T22:59:45.328Z,99.90
2018-05-15T23:02:13.132Z,99.90
2018-05-15T23:04:40.993Z,99.90
2018-05-15T23:07:08.857Z,99.90
2018-05-15T23:09:36.721Z,99.90
2018-05-15T23:12:04.587Z,99.90
2018-05-15T23:14:32.449Z,99.90
2018-05-15T23:17:00.285Z,99.90
2018-05-15T23:19:28.496Z,99.90
2018-05-15T23:21:56.419Z,99.90
2018-05-15T23:24:24.317Z,99.90
2018-05-15T23:26:52.470Z,99.90
2018-05-15T23:29:20.416Z,99.90
2018-05-15T23:31:48.326Z,99.90
2018-05-15T23:34:16.387Z,99.90
2018-05-15T23:36:44.971Z,99.90
2018-05-15T23:39:12.833Z,99.90
2018-05-15T23:41:41.417Z,99.90
2018-05-15T23:44:09.995Z,99.90
2018-05-15T23:46:38.536Z,99.90
2018-05-15T23:49:06.338Z,99.90
2018-05-15T23:51:34.917Z,99.90
2018-05-15T23:54:03.602Z,99.90
2018-05-15T23:56:31.466Z,99.90
2018-05-15T23:58:59.298Z,99.90
